Time,TemperatureF,DewpointF,PressureIn,WindDirection,WindDirectionDegrees,WindSpeedMPH,WindSpeedGustMPH,Humidity,HourlyPrecipIn,Conditions,Clouds,dailyrainin,SoftwareType,DateUTC
2013-05-29 00:01:00,76.0,13.0,29.77,WSW,248,9.0,13.0,9,-99.99,,,-99.99,,2013-05-29 06:01:00,
2013-05-29 00:12:00,75.0,13.0,29.77,WSW,247,9.0,14.0,9,-99.99,,,-99.99,,2013-05-29 06:12:00,
2013-05-29 00:21:00,75.0,13.0,29.77,WSW,252,9.0,14.0,9,-99.99,,,-99.99,,2013-05-29 06:21:00,
2013-05-29 00:31:00,75.0,12.0,29.77,WSW,255,8.0,13.0,9,-99.99,,,-99.99,,2013-05-29 06:31:00,
2013-05-29 00:42:00,74.0,12.0,29.77,WSW,241,9.0,10.0,9,-99.99,,,-99.99,,2013-05-29 06:42:00,
2013-05-29 00:52:00,74.0,11.0,29.77,WSW,255,8.0,13.0,9,-99.99,,,-99.99,,2013-05-29 06:52:00,
2013-05-29 01:01:00,75.0,15.0,29.76,West,270,14.0,20.0,10,-99.99,,,-99.99,,2013-05-29 07:01:00,
2013-05-29 01:11:00,77.0,16.0,29.76,West,274,15.0,21.0,10,-99.99,,,-99.99,,2013-05-29 07:11:00,
2013-05-29 01:21:00,76.0,16.0,29.76,WNW,285,14.0,20.0,10,-99.99,,,-99.99,,2013-05-29 07:21:00,
2013-05-29 01:34:00,76.0,18.0,29.76,WNW,284,13.0,21.0,11,-99.99,,,-99.99,,2013-05-29 07:34:00,
2013-05-29 01:42:00,76.0,18.0,29.76,WNW,282,17.0,24.0,11,-99.99,,,-99.99,,2013-05-29 07:42:00,
2013-05-29 01:52:00,76.0,18.0,29.76,WNW,288,15.0,22.0,11,-99.99,,,-99.99,,2013-05-29 07:52:00,
2013-05-29 02:02:00,74.0,18.0,29.77,WNW,284,9.0,13.0,12,-99.99,,,-99.99,,2013-05-29 08:02:00,
2013-05-29 02:11:00,73.0,17.0,29.76,WNW,287,12.0,16.0,12,-99.99,,,-99.99,,2013-05-29 08:11:00,
2013-05-29 02:22:00,73.0,17.0,29.77,WNW,287,10.0,14.0,12,-99.99,,,-99.99,,2013-05-29 08:22:00,
2013-05-29 02:32:00,72.0,17.0,29.77,West,260,10.0,14.0,12,-99.99,,,-99.99,,2013-05-29 08:32:00,
2013-05-29 02:42:00,72.0,16.0,29.78,WSW,251,8.0,12.0,12,-99.99,,,-99.99,,2013-05-29 08:42:00,
2013-05-29 02:52:00,71.0,17.0,29.78,WSW,257,8.0,13.0,13,-99.99,,,-99.99,,2013-05-29 08:52:00,
2013-05-29 03:01:00,71.0,18.0,29.78,WSW,255,8.0,10.0,13,-99.99,,,-99.99,,2013-05-29 09:01:00,
2013-05-29 03:11:00,69.0,18.0,29.78,WSW,252,7.0,8.0,14,-99.99,,,-99.99,,2013-05-29 09:11:00,
2013-05-29 03:21:00,68.0,17.0,29.78,WSW,248,8.0,9.0,14,-99.99,,,-99.99,,2013-05-29 09:21:00,
2013-05-29 03:33:00,68.0,17.0,29.78,West,259,7.0,9.0,14,-99.99,,,-99.99,,2013-05-29 09:33:00,
2013-05-29 03:42:00,69.0,19.0,29.78,West,261,9.0,14.0,15,-99.99,,,-99.99,,2013-05-29 09:42:00,
2013-05-29 03:52:00,70.0,22.0,29.78,West,264,13.0,16.0,16,-99.99,,,-99.99,,2013-05-29 09:52:00,
2013-05-29 04:03:00,72.0,23.0,29.78,West,278,15.0,21.0,16,-99.99,,,-99.99,,2013-05-29 10:03:00,
2013-05-29 04:12:00,72.0,25.0,29.79,West,274,16.0,20.0,17,-99.99,,,-99.99,,2013-05-29 10:12:00,
2013-05-29 04:22:00,72.0,25.0,29.79,West,274,14.0,18.0,17,-99.99,,,-99.99,,2013-05-29 10:22:00,
2013-05-29 04:32:00,71.0,25.0,29.79,West,272,12.0,16.0,18,-99.99,,,-99.99,,2013-05-29 10:32:00,
2013-05-29 04:42:00,71.0,25.0,29.79,West,274,13.0,16.0,18,-99.99,,,-99.99,,2013-05-29 10:42:00,
2013-05-29 04:52:00,71.0,25.0,29.79,West,266,14.0,21.0,18,-99.99,,,-99.99,,2013-05-29 10:52:00,
2013-05-29 05:02:00,70.0,25.0,29.79,West,270,13.0,18.0,18,-99.99,,,-99.99,,2013-05-29 11:02:00,
2013-05-29 05:12:00,70.0,24.0,29.80,West,267,13.0,16.0,18,-99.99,,,-99.99,,2013-05-29 11:12:00,
2013-05-29 05:22:00,69.0,25.0,29.80,West,267,13.0,18.0,19,-99.99,,,-99.99,,2013-05-29 11:22:00,
2013-05-29 05:32:00,69.0,26.0,29.80,West,263,13.0,17.0,20,-99.99,,,-99.99,,2013-05-29 11:32:00,
2013-05-29 05:42:00,69.0,27.0,29.81,West,266,13.0,18.0,21,-99.99,,,-99.99,,2013-05-29 11:42:00,
2013-05-29 05:52:00,68.0,27.0,29.81,West,265,12.0,15.0,21,-99.99,,,-99.99,,2013-05-29 11:52:00,
2013-05-29 06:01:00,68.0,27.0,29.81,West,264,12.0,15.0,22,-99.99,,,-99.99,,2013-05-29 12:01:00,
2013-05-29 06:11:00,67.0,27.0,29.82,West,268,10.0,14.0,22,-99.99,,,-99.99,,2013-05-29 12:11:00,
2013-05-29 06:22:00,67.0,27.0,29.82,West,265,10.0,13.0,22,-99.99,,,-99.99,,2013-05-29 12:22:00,
2013-05-29 06:32:00,67.0,27.0,29.83,West,267,10.0,14.0,22,-99.99,,,-99.99,,2013-05-29 12:32:00,
2013-05-29 06:42:00,67.0,28.0,29.84,West,260,9.0,13.0,23,-99.99,,,-99.99,,2013-05-29 12:42:00,
2013-05-29 06:52:00,67.0,28.0,29.84,West,265,8.0,10.0,23,-99.99,,,-99.99,,2013-05-29 12:52:00,
2013-05-29 07:02:00,67.0,28.0,29.84,West,262,7.0,12.0,23,-99.99,,,-99.99,,2013-05-29 13:02:00,
2013-05-29 07:11:00,67.0,28.0,29.85,West,259,7.0,10.0,23,-99.99,,,-99.99,,2013-05-29 13:11:00,
2013-05-29 07:21:00,68.0,29.0,29.85,WSW,256,8.0,12.0,23,-99.99,,,-99.99,,2013-05-29 13:21:00,
2013-05-29 07:32:00,69.0,29.0,29.85,West,260,7.0,9.0,22,-99.99,,,-99.99,,2013-05-29 13:32:00,
2013-05-29 07:42:00,70.0,28.0,29.85,West,261,8.0,13.0,21,-99.99,,,-99.99,,2013-05-29 13:42:00,
2013-05-29 07:52:00,71.0,28.0,29.85,West,265,8.0,12.0,20,-99.99,,,-99.99,,2013-05-29 13:52:00,
2013-05-29 08:02:00,72.0,29.0,29.85,West,281,12.0,14.0,20,-99.99,,,-99.99,,2013-05-29 14:02:00,
2013-05-29 08:11:00,73.0,29.0,29.85,West,274,8.0,12.0,20,-99.99,,,-99.99,,2013-05-29 14:11:00,
2013-05-29 08:21:00,73.0,30.0,29.85,West,267,16.0,22.0,20,-99.99,,,-99.99,,2013-05-29 14:21:00,
2013-05-29 08:32:00,74.0,30.0,29.85,WSW,256,12.0,20.0,20,-99.99,,,-99.99,,2013-05-29 14:32:00,
2013-05-29 08:42:00,74.0,29.0,29.86,WSW,253,14.0,21.0,19,-99.99,,,-99.99,,2013-05-29 14:42:00,
2013-05-29 08:52:00,74.0,31.0,29.86,West,270,17.0,23.0,20,-99.99,,,-99.99,,2013-05-29 14:52:00,
2013-05-29 09:01:00,74.0,30.0,29.86,West,267,18.0,25.0,20,-99.99,,,-99.99,,2013-05-29 15:01:00,
2013-05-29 09:11:00,75.0,30.0,29.86,West,276,18.0,23.0,19,-99.99,,,-99.99,,2013-05-29 15:11:00,
2013-05-29 09:21:00,76.0,31.0,29.87,West,268,17.0,23.0,19,-99.99,,,-99.99,,2013-05-29 15:21:00,
2013-05-29 09:33:00,76.0,30.0,29.86,West,262,14.0,25.0,19,-99.99,,,-99.99,,2013-05-29 15:33:00,
2013-05-29 09:42:00,76.0,31.0,29.86,WSW,243,15.0,24.0,19,-99.99,,,-99.99,,2013-05-29 15:42:00,
2013-05-29 09:53:00,76.0,31.0,29.86,West,267,15.0,27.0,19,-99.99,,,-99.99,,2013-05-29 15:53:00,
2013-05-29 10:03:00,76.0,32.0,29.86,West,274,18.0,24.0,20,-99.99,,,-99.99,,2013-05-29 16:03:00,
2013-05-29 10:12:00,77.0,31.0,29.86,West,265,14.0,18.0,19,-99.99,,,-99.99,,2013-05-29 16:12:00,
2013-05-29 10:22:00,77.0,32.0,29.86,West,274,16.0,21.0,19,-99.99,,,-99.99,,2013-05-29 16:22:00,
2013-05-29 10:32:00,78.0,32.0,29.85,West,277,16.0,25.0,19,-99.99,,,-99.99,,2013-05-29 16:32:00,
2013-05-29 10:42:00,78.0,32.0,29.85,WSW,254,13.0,21.0,19,-99.99,,,-99.99,,2013-05-29 16:42:00,
2013-05-29 10:52:00,78.0,32.0,29.86,West,274,14.0,21.0,19,-99.99,,,-99.99,,2013-05-29 16:52:00,
2013-05-29 11:02:00,78.0,31.0,29.86,West,281,13.0,18.0,18,-99.99,,,-99.99,,2013-05-29 17:02:00,
2013-05-29 11:12:00,78.0,31.0,29.85,WNW,282,12.0,18.0,18,-99.99,,,-99.99,,2013-05-29 17:12:00,
2013-05-29 11:22:00,79.0,31.0,29.85,WSW,248,14.0,20.0,17,-99.99,,,-99.99,,2013-05-29 17:22:00,
2013-05-29 11:32:00,79.0,31.0,29.85,West,274,15.0,27.0,17,-99.99,,,-99.99,,2013-05-29 17:32:00,
2013-05-29 11:42:00,80.0,30.0,29.84,West,278,17.0,27.0,16,-99.99,,,-99.99,,2013-05-29 17:42:00,
2013-05-29 11:52:00,80.0,30.0,29.84,WSW,240,17.0,27.0,16,-99.99,,,-99.99,,2013-05-29 17:52:00,
2013-05-29 12:01:00,80.0,30.0,29.84,WSW,246,14.0,23.0,16,-99.99,,,-99.99,,2013-05-29 18:01:00,
2013-05-29 12:13:00,81.0,29.0,29.84,WSW,252,14.0,20.0,15,-99.99,,,-99.99,,2013-05-29 18:13:00,
2013-05-29 12:22:00,80.0,29.0,29.84,West,273,18.0,24.0,15,-99.99,,,-99.99,,2013-05-29 18:22:00,
2013-05-29 12:32:00,80.0,28.0,29.83,WNW,287,12.0,15.0,15,-99.99,,,-99.99,,2013-05-29 18:32:00,
2013-05-29 12:42:00,82.0,30.0,29.83,West,260,17.0,25.0,15,-99.99,,,-99.99,,2013-05-29 18:42:00,
2013-05-29 12:51:00,82.0,30.0,29.83,WNW,286,15.0,23.0,15,-99.99,,,-99.99,,2013-05-29 18:51:00,
2013-05-29 13:02:00,83.0,29.0,29.83,WSW,241,17.0,25.0,14,-99.99,,,-99.99,,2013-05-29 19:02:00,
2013-05-29 13:11:00,83.0,29.0,29.82,West,260,9.0,17.0,14,-99.99,,,-99.99,,2013-05-29 19:11:00,
2013-05-29 13:21:00,84.0,29.0,29.82,WNW,291,17.0,23.0,14,-99.99,,,-99.99,,2013-05-29 19:21:00,
2013-05-29 13:32:00,84.0,28.0,29.82,West,265,21.0,27.0,13,-99.99,,,-99.99,,2013-05-29 19:32:00,
2013-05-29 13:44:00,83.0,29.0,29.81,West,278,21.0,29.0,14,-99.99,,,-99.99,,2013-05-29 19:44:00,
2013-05-29 13:52:00,83.0,27.0,29.80,West,276,20.0,30.0,13,-99.99,,,-99.99,,2013-05-29 19:52:00,
2013-05-29 14:02:00,84.0,28.0,29.80,West,279,16.0,22.0,13,-99.99,,,-99.99,,2013-05-29 20:02:00,
2013-05-29 14:11:00,84.0,28.0,29.80,WSW,252,18.0,29.0,13,-99.99,,,-99.99,,2013-05-29 20:11:00,
2013-05-29 14:22:00,85.0,28.0,29.79,WSW,241,20.0,28.0,13,-99.99,,,-99.99,,2013-05-29 20:22:00,
2013-05-29 14:33:00,85.0,28.0,29.79,West,261,15.0,24.0,13,-99.99,,,-99.99,,2013-05-29 20:33:00,
2013-05-29 14:42:00,85.0,29.0,29.78,WSW,251,17.0,27.0,13,-99.99,,,-99.99,,2013-05-29 20:42:00,
2013-05-29 14:52:00,85.0,27.0,29.78,WSW,251,15.0,24.0,12,-99.99,,,-99.99,,2013-05-29 20:52:00,
2013-05-29 15:02:00,86.0,30.0,29.77,WNW,300,18.0,30.0,13,-99.99,,,-99.99,,2013-05-29 21:02:00,
2013-05-29 15:12:00,86.0,27.0,29.77,West,261,17.0,23.0,12,-99.99,,,-99.99,,2013-05-29 21:12:00,
2013-05-29 15:22:00,87.0,28.0,29.76,West,269,15.0,20.0,12,-99.99,,,-99.99,,2013-05-29 21:22:00,
2013-05-29 15:33:00,86.0,28.0,29.77,West,274,24.0,33.0,12,-99.99,,,-99.99,,2013-05-29 21:33:00,
2013-05-29 15:43:00,86.0,28.0,29.76,WSW,247,15.0,28.0,12,-99.99,,,-99.99,,2013-05-29 21:43:00,
2013-05-29 15:53:00,87.0,28.0,29.76,WNW,282,14.0,23.0,12,-99.99,,,-99.99,,2013-05-29 21:53:00,
2013-05-29 16:03:00,87.0,28.0,29.75,West,260,22.0,29.0,12,-99.99,,,-99.99,,2013-05-29 22:03:00,
2013-05-29 16:12:00,87.0,28.0,29.75,WSW,258,16.0,28.0,12,-99.99,,,-99.99,,2013-05-29 22:12:00,
2013-05-29 16:23:00,87.0,28.0,29.75,WSW,254,17.0,25.0,12,-99.99,,,-99.99,,2013-05-29 22:23:00,
2013-05-29 16:33:00,87.0,28.0,29.74,West,263,18.0,30.0,12,-99.99,,,-99.99,,2013-05-29 22:33:00,
2013-05-29 16:42:00,87.0,26.0,29.74,WSW,257,22.0,30.0,11,-99.99,,,-99.99,,2013-05-29 22:42:00,
2013-05-29 16:53:00,87.0,26.0,29.74,West,272,18.0,30.0,11,-99.99,,,-99.99,,2013-05-29 22:53:00,
2013-05-29 17:02:00,88.0,27.0,29.73,WNW,296,18.0,30.0,11,-99.99,,,-99.99,,2013-05-29 23:02:00,
2013-05-29 17:12:00,88.0,27.0,29.73,West,269,23.0,36.0,11,-99.99,,,-99.99,,2013-05-29 23:12:00,
2013-05-29 17:22:00,87.0,29.0,29.73,WNW,288,23.0,32.0,12,-99.99,,,-99.99,,2013-05-29 23:22:00,
2013-05-29 17:33:00,89.0,27.0,29.73,WNW,296,22.0,31.0,11,-99.99,,,-99.99,,2013-05-29 23:33:00,
2013-05-29 17:42:00,88.0,27.0,29.73,WNW,282,20.0,31.0,11,-99.99,,,-99.99,,2013-05-29 23:42:00,
2013-05-29 17:52:00,87.0,26.0,29.73,West,272,23.0,33.0,11,-99.99,,,-99.99,,2013-05-29 23:52:00,
2013-05-29 18:01:00,88.0,27.0,29.73,WNW,286,17.0,24.0,11,-99.99,,,-99.99,,2013-05-30 00:01:00,
2013-05-29 18:11:00,87.0,26.0,29.72,West,274,22.0,29.0,11,-99.99,,,-99.99,,2013-05-30 00:11:00,
2013-05-29 18:21:00,87.0,28.0,29.72,WNW,293,24.0,32.0,12,-99.99,,,-99.99,,2013-05-30 00:21:00,
2013-05-29 18:31:00,87.0,26.0,29.72,WNW,290,22.0,30.0,11,-99.99,,,-99.99,,2013-05-30 00:31:00,
2013-05-29 18:42:00,87.0,26.0,29.73,West,278,25.0,32.0,11,-99.99,,,-99.99,,2013-05-30 00:42:00,
2013-05-29 18:52:00,87.0,28.0,29.73,WNW,291,18.0,30.0,12,-99.99,,,-99.99,,2013-05-30 00:52:00,
2013-05-29 19:01:00,86.0,28.0,29.73,WNW,287,22.0,32.0,12,-99.99,,,-99.99,,2013-05-30 01:01:00,
2013-05-29 19:11:00,86.0,27.0,29.74,WNW,296,24.0,36.0,12,-99.99,,,-99.99,,2013-05-30 01:11:00,
2013-05-29 19:21:00,86.0,25.0,29.74,WNW,289,17.0,25.0,11,-99.99,,,-99.99,,2013-05-30 01:21:00,
2013-05-29 19:32:00,85.0,27.0,29.74,WNW,295,18.0,28.0,12,-99.99,,,-99.99,,2013-05-30 01:32:00,
2013-05-29 19:41:00,85.0,26.0,29.74,WNW,286,20.0,27.0,12,-99.99,,,-99.99,,2013-05-30 01:41:00,
2013-05-29 19:52:00,84.0,26.0,29.74,West,279,16.0,22.0,12,-99.99,,,-99.99,,2013-05-30 01:52:00,
2013-05-29 20:01:00,84.0,26.0,29.74,WNW,284,14.0,23.0,12,-99.99,,,-99.99,,2013-05-30 02:01:00,
2013-05-29 20:11:00,84.0,28.0,29.75,WNW,283,16.0,24.0,13,-99.99,,,-99.99,,2013-05-30 02:11:00,
2013-05-29 20:21:00,83.0,27.0,29.75,WNW,282,18.0,24.0,13,-99.99,,,-99.99,,2013-05-30 02:21:00,
2013-05-29 20:32:00,83.0,27.0,29.75,WNW,286,12.0,16.0,13,-99.99,,,-99.99,,2013-05-30 02:32:00,
2013-05-29 20:42:00,83.0,27.0,29.75,WNW,286,12.0,16.0,13,-99.99,,,-99.99,,2013-05-30 02:42:00,
2013-05-29 20:52:00,83.0,27.0,29.75,WNW,286,12.0,16.0,13,-99.99,,,-99.99,,2013-05-30 02:52:00,
2013-05-29 21:02:00,81.0,28.0,29.75,WNW,282,12.0,15.0,14,-99.99,,,-99.99,,2013-05-30 03:02:00,
2013-05-29 21:11:00,81.0,27.0,29.76,WNW,286,12.0,15.0,14,-99.99,,,-99.99,,2013-05-30 03:11:00,
2013-05-29 21:21:00,80.0,27.0,29.76,WNW,284,10.0,16.0,14,-99.99,,,-99.99,,2013-05-30 03:21:00,
2013-05-29 21:33:00,80.0,26.0,29.76,WNW,285,12.0,16.0,14,-99.99,,,-99.99,,2013-05-30 03:33:00,
2013-05-29 21:43:00,80.0,26.0,29.77,West,281,13.0,15.0,14,-99.99,,,-99.99,,2013-05-30 03:43:00,
2013-05-29 21:53:00,80.0,26.0,29.77,West,281,12.0,15.0,14,-99.99,,,-99.99,,2013-05-30 03:53:00,
2013-05-29 22:02:00,79.0,27.0,29.77,West,278,12.0,15.0,15,-99.99,,,-99.99,,2013-05-30 04:02:00,
2013-05-29 22:12:00,78.0,27.0,29.78,West,277,10.0,13.0,15,-99.99,,,-99.99,,2013-05-30 04:12:00,
2013-05-29 22:23:00,77.0,26.0,29.78,West,268,10.0,13.0,15,-99.99,,,-99.99,,2013-05-30 04:23:00,
2013-05-29 22:33:00,77.0,27.0,29.79,West,275,12.0,15.0,16,-99.99,,,-99.99,,2013-05-30 04:33:00,
2013-05-29 22:42:00,77.0,27.0,29.79,West,277,12.0,15.0,16,-99.99,,,-99.99,,2013-05-30 04:42:00,
2013-05-29 22:53:00,76.0,27.0,29.79,West,273,10.0,12.0,16,-99.99,,,-99.99,,2013-05-30 04:53:00,
2013-05-29 23:02:00,76.0,28.0,29.80,West,263,9.0,12.0,17,-99.99,,,-99.99,,2013-05-30 05:02:00,
2013-05-29 23:12:00,74.0,27.0,29.80,WSW,250,7.0,10.0,17,-99.99,,,-99.99,,2013-05-30 05:12:00,
2013-05-29 23:22:00,73.0,27.0,29.80,West,259,8.0,10.0,18,-99.99,,,-99.99,,2013-05-30 05:22:00,
2013-05-29 23:32:00,72.0,27.0,29.81,WSW,252,7.0,10.0,18,-99.99,,,-99.99,,2013-05-30 05:32:00,
2013-05-29 23:42:00,73.0,27.0,29.81,WSW,258,8.0,12.0,18,-99.99,,,-99.99,,2013-05-30 05:42:00,
2013-05-29 23:52:00,72.0,27.0,29.81,WSW,254,8.0,13.0,18,-99.99,,,-99.99,,2013-05-30 05:52:00,